Time;durP1;ratioP1;P1;durP2;ratioP2;P2;SDS_P1;SDS_P2;PMS_P1;PMS_P2;Temp;Humidity;BMP_temperature;BMP_pressure;BME280_temperature;BME280_humidity;BME280_pressure;Samples;Min_cycle;Max_cycle;Signal;HPM_P1;HPM_P2
2021/12/19 00:13:59;;;;;;;3.30;2.80;;;;;;;3.92;92.94;99129.55;422476;1307;107827;-40
2021/12/19 00:24:08;;;;;;;2.10;1.90;;;;;;;3.92;92.85;99123.11;422421;1307;97576;-40
2021/12/19 00:34:15;;;;;;;2.80;2.20;;;;;;;3.91;92.86;99069.23;422367;1307;108959;-41
2021/12/19 00:44:23;;;;;;;2.20;1.80;;;;;;;3.91;92.78;99031.39;422161;1307;97928;-41
2021/12/19 00:54:31;;;;;;;3.10;2.00;;;;;;;3.91;92.90;99032.37;422511;1307;111608;-40
2021/12/19 01:04:38;;;;;;;2.90;1.80;;;;;;;3.93;92.80;99028.52;422441;1307;108823;-40
2021/12/19 01:14:45;;;;;;;3.00;1.90;;;;;;;3.97;92.86;99015.59;422446;1307;97859;-41
2021/12/19 01:24:52;;;;;;;2.70;2.10;;;;;;;3.99;92.87;99009.62;422405;1307;109035;-41
2021/12/19 01:35:00;;;;;;;2.40;1.80;;;;;;;4.03;92.84;98999.47;422514;1307;98003;-41
2021/12/19 01:45:09;;;;;;;2.40;2.20;;;;;;;4.06;92.83;98992.35;422492;1307;111081;-41
2021/12/19 01:55:16;;;;;;;2.40;1.80;;;;;;;4.05;92.93;98974.27;422636;1310;109327;-41
2021/12/19 02:05:26;;;;;;;2.20;2.00;;;;;;;4.06;92.88;98950.38;422485;1307;97545;-41
2021/12/19 02:15:32;;;;;;;;;;;;;;;4.08;92.82;98925.07;421774;1298;108017;-41
2021/12/19 03:35:01;;;;;;;2.80;2.00;;;;;;;4.28;93.04;98734.53;420412;1310;111856;-41
2021/12/19 03:45:12;;;;;;;;;;;;;;;;;;;;;
2021/12/19 03:56:28;;;;;;;2.50;1.50;;;;;;;4.38;93.15;98685.32;419014;1312;97585;-41
2021/12/19 05:16:22;;;;;;;6.70;4.70;;;;;;;4.74;93.28;98584.02;419149;1313;97795;-40
2021/12/19 05:27:09;;;;;;;11.20;5.70;;;;;;;4.80;93.42;98592.77;419188;1312;111666;-40
2021/12/19 06:11:01;;;;;;;13.50;6.40;;;;;;;4.80;93.23;98576.43;419610;1309;97540;-40
2021/12/19 06:21:09;;;;;;;14.30;5.00;;;;;;;4.79;92.87;98578.69;420524;1311;111117;-40
2021/12/19 06:31:16;;;;;;;6.60;4.50;;;;;;;4.79;92.30;98566.07;419879;1311;108773;-42
2021/12/19 06:52:56;;;;;;;11.80;4.70;;;;;;;4.69;90.91;98529.02;418927;1315;108680;-40
2021/12/19 07:14:11;;;;;;;7.00;4.90;;;;;;;4.66;90.50;98549.47;419535;1310;113186;-40
2021/12/19 07:25:06;;;;;;;10.00;4.50;;;;;;;4.62;90.39;98558.68;420327;1312;108865;-41
2021/12/19 07:58:02;;;;;;;18.20;9.30;;;;;;;4.42;90.88;98545.39;419350;1313;96867;-40
2021/12/19 08:08:15;;;;;;;25.90;13.10;;;;;;;4.42;91.03;98532.53;420063;1313;111192;-40
2021/12/19 08:18:23;;;;;;;16.60;9.80;;;;;;;4.41;91.07;98525.32;420972;1309;107697;-40
2021/12/19 08:28:30;;;;;;;10.30;5.60;;;;;;;4.42;91.23;98520.00;420072;1312;97354;-41
2021/12/19 08:38:37;;;;;;;17.00;8.10;;;;;;;4.44;91.43;98517.96;420475;1312;109108;-40
2021/12/19 08:48:44;;;;;;;18.40;7.60;;;;;;;4.42;91.53;98519.52;420258;1312;98070;-41
2021/12/19 08:58:52;;;;;;;13.30;5.90;;;;;;;4.39;91.78;98524.52;421284;1309;111122;-41
2021/12/19 09:08:59;;;;;;;8.30;4.70;;;;;;;4.36;91.91;98510.03;420239;1311;108348;-41
2021/12/19 09:19:06;;;;;;;7.20;4.30;;;;;;;4.35;92.04;98503.70;421617;1309;97559;-40
2021/12/19 09:29:13;;;;;;;6.30;4.70;;;;;;;4.37;92.10;98502.27;421644;1309;108832;-41
2021/12/19 09:39:21;;;;;;;12.80;5.10;;;;;;;4.42;92.06;98493.19;421361;1309;97581;-40
2021/12/19 09:49:28;;;;;;;8.90;4.90;;;;;;;4.49;92.01;98488.51;421375;1309;111197;-41
2021/12/19 09:59:36;;;;;;;9.10;4.90;;;;;;;4.49;91.88;98477.27;421246;1309;108891;-40
2021/12/19 10:09:43;;;;;;;6.60;5.30;;;;;;;4.52;91.91;98461.55;420457;1310;98279;-41
2021/12/19 10:19:53;;;;;;;7.30;4.30;;;;;;;4.60;91.79;98450.29;421958;1309;109043;-40
2021/12/19 10:30:01;;;;;;;7.20;3.90;;;;;;;4.63;91.68;98437.25;420360;1312;97621;-40
2021/12/19 10:40:10;;;;;;;6.30;3.90;;;;;;;4.56;91.68;98417.05;420383;1312;111572;-40
2021/12/19 10:50:17;;;;;;;5.30;3.10;;;;;;;4.52;91.75;98401.58;420334;1312;108880;-41
2021/12/19 11:00:26;;;;;;;7.30;3.70;;;;;;;4.50;91.78;98380.81;420496;1312;97546;-41
2021/12/19 11:10:34;;;;;;;6.40;4.30;;;;;;;4.40;91.84;98375.69;421716;1310;108041;-41
2021/12/19 11:20:42;;;;;;;4.20;2.60;;;;;;;4.38;92.08;98361.92;421458;1309;98044;-42
2021/12/19 11:30:48;;;;;;;4.00;2.20;;;;;;;4.41;92.07;98342.35;421668;1309;110761;-40
2021/12/19 11:40:55;;;;;;;6.40;3.50;;;;;;;4.47;92.01;98328.67;421488;1310;106877;-40
2021/12/19 11:51:06;;;;;;;4.70;3.40;;;;;;;4.42;92.10;98307.67;420548;1312;97961;-41
2021/12/19 12:01:11;;;;;;;15.60;7.20;;;;;;;4.38;92.07;98293.73;420196;1312;108910;-41
2021/12/19 12:11:22;;;;;;;6.20;4.20;;;;;;;4.31;92.19;98278.71;416281;1313;5636953;-42
2021/12/19 12:21:38;;;;;;;4.30;2.50;;;;;;;4.36;92.14;98261.92;420606;1312;111138;-41
2021/12/19 12:31:47;;;;;;;3.60;2.30;;;;;;;4.39;92.14;98253.88;420282;1312;107873;-41
2021/12/19 12:42:03;;;;;;;9.30;3.90;;;;;;;4.34;92.13;98246.13;420372;1312;97945;-41
2021/12/19 12:52:10;;;;;;;5.50;2.90;;;;;;;4.25;92.14;98222.13;421561;1309;109300;-41
2021/12/19 13:02:24;;;;;;;12.00;6.70;;;;;;;4.23;92.27;98221.14;420526;1312;97987;-40
2021/12/19 13:12:34;;;;;;;12.80;7.80;;;;;;;4.20;92.26;98199.31;420405;1312;111194;-41
2021/12/19 13:22:45;;;;;;;9.60;5.40;;;;;;;4.17;92.17;98187.59;421748;1310;109142;-40
2021/12/19 13:32:50;;;;;;;5.30;3.10;;;;;;;4.13;92.22;98181.32;421581;1309;96784;-42
2021/12/19 13:53:02;;;;;;;6.30;2.70;;;;;;;4.14;92.36;98152.46;421400;1309;97922;-40
2021/12/19 14:03:10;;;;;;;5.10;3.00;;;;;;;4.09;92.39;98137.69;421851;1309;110974;-39
2021/12/19 14:13:30;;;;;;;8.00;4.50;;;;;;;4.06;92.46;98128.02;420499;1312;108979;-40
2021/12/19 14:23:39;;;;;;;10.10;5.10;;;;;;;4.04;92.49;98122.67;421313;1312;97057;-40
2021/12/19 14:33:45;;;;;;;8.80;4.90;;;;;;;4.04;92.46;98123.77;420268;1315;108873;-41
2021/12/19 14:43:51;;;;;;;9.10;5.30;;;;;;;4.04;92.39;98124.04;420413;1312;97971;-39
2021/12/19 14:54:01;;;;;;;4.10;3.10;;;;;;;4.03;92.36;98116.70;420767;1315;110541;-42
2021/12/19 15:04:06;;;;;;;13.20;7.90;;;;;;;3.99;92.46;98118.17;420171;1312;108781;-41
2021/12/19 15:14:14;;;;;;;7.20;4.30;;;;;;;4.00;92.57;98113.50;420575;1315;98105;-41
2021/12/19 15:24:22;;;;;;;9.50;5.20;;;;;;;4.01;92.46;98091.81;420363;1315;108992;-41
2021/12/19 15:34:29;;;;;;;5.20;2.90;;;;;;;4.00;92.40;98079.83;420492;1315;97976;-41
2021/12/19 15:44:37;;;;;;;5.70;2.20;;;;;;;4.03;92.41;98074.69;420435;1315;111375;-40
2021/12/19 16:04:51;;;;;;;3.30;2.70;;;;;;;4.03;92.30;98057.19;420382;1315;97556;-41
2021/12/19 16:14:58;;;;;;;6.60;3.20;;;;;;;3.98;92.28;98043.77;420563;1315;108931;-42
2021/12/19 16:25:06;;;;;;;5.30;3.30;;;;;;;3.94;92.39;98030.81;420388;1315;97958;-41
2021/12/19 16:35:14;;;;;;;4.20;2.70;;;;;;;3.93;92.51;98028.36;420766;1315;110815;-42
2021/12/19 16:45:21;;;;;;;4.40;2.60;;;;;;;3.92;92.44;98025.50;420317;1315;108849;-40
2021/12/19 16:55:26;;;;;;;2.50;2.20;;;;;;;3.89;92.56;98015.41;420523;1315;97952;-44
2021/12/19 17:05:37;;;;;;;4.50;2.80;;;;;;;3.89;92.62;98006.08;420379;1313;108807;-41
2021/12/19 17:15:46;;;;;;;6.80;4.00;;;;;;;3.91;92.83;98003.86;420535;1315;98050;-41
2021/12/19 17:25:51;;;;;;;11.90;7.80;;;;;;;3.92;92.82;97997.27;420275;1315;111185;-41
2021/12/19 17:35:59;;;;;;;8.30;4.60;;;;;;;3.89;93.08;98003.21;420457;1315;107949;-41
2021/12/19 17:46:09;;;;;;;4.80;3.20;;;;;;;3.70;92.83;98024.26;420452;1317;97888;-42
2021/12/19 17:56:16;;;;;;;8.90;6.30;;;;;;;3.28;92.30;98041.44;420371;1313;108940;-42
2021/12/19 18:06:24;;;;;;;8.70;4.30;;;;;;;3.17;92.34;98047.88;420185;1312;98202;-41
2021/12/19 18:16:31;;;;;;;11.50;6.30;;;;;;;3.08;92.24;98068.59;420746;1313;111120;-41
2021/12/19 18:26:39;;;;;;;11.60;5.80;;;;;;;2.91;91.94;98088.20;420369;1312;109229;-41
2021/12/19 18:36:50;;;;;;;4.80;2.90;;;;;;;2.72;91.67;98095.21;420175;1312;97643;-41
2021/12/19 19:17:20;;;;;;;7.60;3.70;;;;;;;2.37;91.44;98131.20;420335;1315;109051;-42
2021/12/19 19:27:27;;;;;;;11.60;5.30;;;;;;;2.27;91.34;98146.85;420642;1312;96724;-42
2021/12/19 19:58:06;;;;;;;9.00;4.40;;;;;;;1.72;90.57;98165.35;420435;1311;97540;-40
2021/12/19 20:08:14;;;;;;;13.60;6.70;;;;;;;1.59;90.29;98183.89;419902;1310;569278;-41
2021/12/19 20:18:21;;;;;;;20.60;8.20;;;;;;;1.42;90.47;98196.13;420324;1310;97987;-41
2021/12/19 20:28:28;;;;;;;29.40;10.90;;;;;;;1.25;90.44;98204.89;420463;1312;97968;-41
2021/12/19 20:38:34;;;;;;;16.30;8.80;;;;;;;1.12;90.21;98208.52;420235;1312;111105;-42
2021/12/19 20:48:45;;;;;;;12.60;5.90;;;;;;;1.01;90.39;98221.27;420377;1312;108680;-40
2021/12/19 20:58:53;;;;;;;21.10;6.20;;;;;;;0.91;90.35;98236.20;420247;1311;97588;-41
2021/12/19 21:09:01;;;;;;;14.20;6.10;;;;;;;0.82;90.38;98243.97;420534;1312;108386;-40
2021/12/19 21:29:34;;;;;;;23.20;10.60;;;;;;;0.65;90.54;98262.98;420295;1312;110728;-41
2021/12/19 21:39:42;;;;;;;22.30;8.00;;;;;;;0.59;90.48;98281.38;420456;1312;108022;-40
2021/12/19 21:49:50;;;;;;;17.00;8.20;;;;;;;0.51;90.53;98278.65;420534;1312;97557;-40
2021/12/19 21:59:56;;;;;;;20.90;8.30;;;;;;;0.43;90.57;98278.27;420869;1309;111199;-42
2021/12/19 22:10:04;;;;;;;29.30;9.20;;;;;;;0.31;90.52;98277.61;421025;1310;109152;-41
2021/12/19 22:20:13;;;;;;;28.00;10.40;;;;;;;0.12;90.53;98276.39;420722;1310;98591;-40
2021/12/19 22:30:20;;;;;;;18.80;8.30;;;;;;;0.04;90.43;98278.95;420096;1311;111146;-41
2021/12/19 22:40:28;;;;;;;17.20;8.00;;;;;;;-0.01;90.50;98279.81;420415;1312;108582;-40
2021/12/19 22:50:38;;;;;;;13.40;6.10;;;;;;;0.00;90.35;98291.80;420292;1311;97978;-40
2021/12/19 23:21:04;;;;;;;11.80;6.40;;;;;;;0.12;90.55;98301.26;420793;1309;111107;-40
2021/12/19 23:31:11;;;;;;;13.90;4.90;;;;;;;0.20;90.29;98295.97;420281;1312;109094;-39
2021/12/19 23:51:45;;;;;;;15.20;6.30;;;;;;;0.35;90.44;98300.73;420796;1312;111107;-41
